Time;durP1;ratioP1;P1;durP2;ratioP2;P2;SDS_P1;SDS_P2;PMS_P1;PMS_P2;Temp;Humidity;BMP_temperature;BMP_pressure;BME280_temperature;BME280_humidity;BME280_pressure;Samples;Min_cycle;Max_cycle;Signal;HPM_P1;HPM_P2
2021/06/04 00:01:38;;;;;;;2.47;1.63;;;;;;;;;;5072888;28;20016;-64
2021/06/04 00:04:05;;;;;;;2.95;1.83;;;;;;;;;;5071578;28;20020;-64
2021/06/04 00:06:31;;;;;;;3.28;2.00;;;;;;;;;;5070690;28;20454;-64
2021/06/04 00:08:56;;;;;;;2.28;2.00;;;;;;;;;;5070671;28;20100;-64
2021/06/04 00:11:27;;;;;;;3.70;1.65;;;;;;;;;;5085927;28;20032;-64
2021/06/04 00:13:57;;;;;;;3.17;1.90;;;;;;;;;;5091813;28;20019;-64
2021/06/04 00:16:30;;;;;;;5.35;1.67;;;;;;;;;;5084009;28;20024;-64
2021/06/04 00:18:55;;;;;;;3.15;1.77;;;;;;;;;;5070474;28;20138;-64
2021/06/04 00:21:23;;;;;;;2.15;1.58;;;;;;;;;;5071287;28;20426;-65
2021/06/04 00:23:48;;;;;;;2.17;1.98;;;;;;;;;;5072463;28;20379;-64
2021/06/04 00:26:14;;;;;;;2.70;2.15;;;;;;;;;;5071454;28;20024;-64
2021/06/04 00:28:40;;;;;;;2.38;1.95;;;;;;;;;;5068100;28;20027;-64
2021/06/04 00:31:05;;;;;;;2.22;1.77;;;;;;;;;;5070914;28;20017;-64
2021/06/04 00:33:30;;;;;;;5.28;2.10;;;;;;;;;;5072472;28;20017;-64
2021/06/04 00:35:55;;;;;;;4.22;2.53;;;;;;;;;;5072165;28;20054;-64
2021/06/04 00:38:21;;;;;;;3.28;1.50;;;;;;;;;;5068947;28;20096;-64
2021/06/04 00:40:51;;;;;;;2.28;1.48;;;;;;;;;;5071935;28;20036;-64
2021/06/04 00:43:17;;;;;;;2.75;1.90;;;;;;;;;;5072212;28;20051;-64
2021/06/04 00:45:46;;;;;;;2.55;1.48;;;;;;;;;;5071751;28;20027;-64
2021/06/04 00:48:11;;;;;;;2.08;1.80;;;;;;;;;;5057348;28;20028;-64
2021/06/04 00:50:40;;;;;;;4.25;1.83;;;;;;;;;;5071978;28;20021;-64
2021/06/04 00:53:06;;;;;;;3.22;1.92;;;;;;;;;;5070987;28;20027;-64
2021/06/04 00:55:32;;;;;;;5.03;1.92;;;;;;;;;;5072044;28;20017;-64
2021/06/04 00:57:57;;;;;;;2.38;1.83;;;;;;;;;;5068995;28;20024;-64
2021/06/04 01:00:44;;;;;;;6.38;2.20;;;;;;;;;;5067111;28;20491;-64
2021/06/04 01:03:10;;;;;;;3.88;2.05;;;;;;;;;;5065319;28;20407;-64
2021/06/04 01:05:37;;;;;;;2.38;1.88;;;;;;;;;;5071598;28;20025;-64
2021/06/04 01:08:05;;;;;;;2.38;1.65;;;;;;;;;;5068947;28;20021;-64
2021/06/04 01:10:36;;;;;;;2.60;1.80;;;;;;;;;;5071969;28;20025;-64
2021/06/04 01:13:06;;;;;;;4.32;1.63;;;;;;;;;;5090485;28;20122;-64
2021/06/04 01:15:45;;;;;;;3.08;1.50;;;;;;;;;;5091825;28;20519;-64
2021/06/04 01:18:29;;;;;;;2.08;1.85;;;;;;;;;;5072649;28;20033;-64
2021/06/04 01:20:57;;;;;;;3.90;2.13;;;;;;;;;;5076240;28;20025;-64
2021/06/04 01:23:34;;;;;;;3.92;1.90;;;;;;;;;;5074901;28;20055;-64
2021/06/04 01:25:59;;;;;;;3.78;1.75;;;;;;;;;;5074379;28;20111;-64
2021/06/04 01:28:33;;;;;;;2.30;1.65;;;;;;;;;;5073033;28;20095;-64
2021/06/04 01:30:58;;;;;;;2.92;2.15;;;;;;;;;;5074269;28;20074;-64
2021/06/04 01:33:26;;;;;;;2.20;1.80;;;;;;;;;;5074331;28;20426;-64
2021/06/04 01:35:53;;;;;;;2.40;1.90;;;;;;;;;;5087153;28;20020;-64
2021/06/04 01:38:21;;;;;;;2.42;1.77;;;;;;;;;;5091514;28;20023;-64
2021/06/04 01:40:50;;;;;;;2.40;1.75;;;;;;;;;;5083525;28;20515;-63
2021/06/04 01:43:17;;;;;;;4.38;2.35;;;;;;;;;;5073970;28;20032;-64
2021/06/04 01:45:44;;;;;;;2.50;1.77;;;;;;;;;;5075330;28;20371;-65
2021/06/04 01:48:15;;;;;;;2.20;1.85;;;;;;;;;;5072478;28;20067;-63
2021/06/04 01:50:43;;;;;;;3.38;2.00;;;;;;;;;;5073921;28;20111;-63
2021/06/04 01:53:11;;;;;;;3.08;1.90;;;;;;;;;;5075100;28;20070;-63
2021/06/04 01:55:39;;;;;;;2.67;2.30;;;;;;;;;;5075134;28;20023;-64
2021/06/04 01:58:10;;;;;;;3.78;2.10;;;;;;;;;;5072330;28;20052;-64
2021/06/04 02:00:41;;;;;;;3.70;2.40;;;;;;;;;;5074808;28;20480;-63
2021/06/04 02:03:08;;;;;;;3.95;2.10;;;;;;;;;;5074870;28;20040;-64
2021/06/04 02:05:35;;;;;;;3.28;2.40;;;;;;;;;;5075013;28;20012;-64
2021/06/04 02:08:01;;;;;;;1.85;1.70;;;;;;;;;;5072250;28;20024;-64
2021/06/04 02:10:35;;;;;;;1.88;1.60;;;;;;;;;;5073371;28;20388;-64
2021/06/04 02:13:02;;;;;;;2.93;2.00;;;;;;;;;;5074551;28;20147;-64
2021/06/04 02:15:29;;;;;;;2.70;2.42;;;;;;;;;;5073604;28;20024;-64
2021/06/04 02:18:03;;;;;;;2.35;2.15;;;;;;;;;;5067328;28;20366;-63
2021/06/04 02:20:33;;;;;;;2.42;1.80;;;;;;;;;;5074103;28;20031;-64
2021/06/04 02:22:59;;;;;;;5.38;2.05;;;;;;;;;;5073262;28;20471;-64
2021/06/04 02:25:42;;;;;;;2.45;1.73;;;;;;;;;;5074856;28;20098;-64
2021/06/04 02:28:25;;;;;;;2.72;2.08;;;;;;;;;;5071860;28;20016;-64
2021/06/04 02:30:59;;;;;;;2.83;2.10;;;;;;;;;;5074704;28;20475;-64
2021/06/04 02:33:36;;;;;;;3.72;2.80;;;;;;;;;;5059160;28;20039;-64
2021/06/04 02:36:04;;;;;;;2.65;2.40;;;;;;;;;;5074477;28;20033;-64
2021/06/04 02:38:33;;;;;;;1.95;1.85;;;;;;;;;;5069922;28;20110;-64
2021/06/04 02:41:02;;;;;;;2.60;1.88;;;;;;;;;;5074132;28;20021;-64
2021/06/04 02:43:53;;;;;;;1.80;1.60;;;;;;;;;;5059122;28;20476;-64
2021/06/04 02:46:20;;;;;;;5.20;2.45;;;;;;;;;;5073019;28;20056;-64
2021/06/04 02:48:47;;;;;;;5.10;2.10;;;;;;;;;;5069771;28;20021;-64
2021/06/04 02:51:15;;;;;;;3.05;2.13;;;;;;;;;;5074417;28;20027;-64
2021/06/04 02:53:46;;;;;;;2.63;2.33;;;;;;;;;;5073971;28;20158;-64
2021/06/04 02:56:25;;;;;;;5.05;2.40;;;;;;;;;;5074099;28;20017;-64
2021/06/04 02:58:55;;;;;;;2.97;2.17;;;;;;;;;;5071147;28;20032;-64
2021/06/04 03:01:21;;;;;;;4.55;2.10;;;;;;;;;;5071385;28;20021;-64
2021/06/04 03:03:50;;;;;;;2.72;2.30;;;;;;;;;;5073861;28;20165;-63
2021/06/04 03:06:17;;;;;;;3.65;2.28;;;;;;;;;;5074170;28;20468;-64
2021/06/04 03:08:44;;;;;;;3.97;2.50;;;;;;;;;;5071012;28;20428;-64
2021/06/04 03:11:10;;;;;;;2.63;2.17;;;;;;;;;;5073653;28;20016;-64
2021/06/04 03:13:36;;;;;;;4.05;2.83;;;;;;;;;;5088854;28;20025;-63
2021/06/04 03:16:10;;;;;;;3.58;2.30;;;;;;;;;;5073570;28;20009;-64
2021/06/04 03:18:40;;;;;;;4.82;2.25;;;;;;;;;;5070789;28;20013;-64
2021/06/04 03:21:08;;;;;;;3.22;2.92;;;;;;;;;;5073735;28;20103;-64
2021/06/04 03:23:36;;;;;;;2.97;2.70;;;;;;;;;;5073383;28;20353;-64
2021/06/04 03:26:04;;;;;;;3.28;2.15;;;;;;;;;;5073451;28;20052;-64
2021/06/04 03:28:29;;;;;;;2.55;2.10;;;;;;;;;;5070491;28;20476;-64
2021/06/04 03:30:55;;;;;;;2.25;1.92;;;;;;;;;;5072065;28;20089;-64
2021/06/04 03:33:22;;;;;;;2.50;1.98;;;;;;;;;;5072498;28;20486;-63
2021/06/04 03:35:48;;;;;;;2.88;2.30;;;;;;;;;;5083310;28;20352;-64
2021/06/04 03:38:14;;;;;;;2.88;2.30;;;;;;;;;;5089234;28;20471;-64
2021/06/04 03:40:40;;;;;;;3.40;2.45;;;;;;;;;;5077895;28;20090;-63
2021/06/04 03:43:06;;;;;;;2.67;2.20;;;;;;;;;;5073244;28;20024;-64
2021/06/04 03:45:33;;;;;;;2.65;2.20;;;;;;;;;;5072352;28;20028;-64
2021/06/04 03:47:59;;;;;;;2.70;2.50;;;;;;;;;;5068785;28;20031;-64
2021/06/04 03:50:24;;;;;;;3.28;2.20;;;;;;;;;;5073031;28;20021;-64
2021/06/04 03:52:50;;;;;;;3.05;2.60;;;;;;;;;;5071619;28;20162;-63
2021/06/04 03:55:16;;;;;;;2.47;2.22;;;;;;;;;;5071536;28;20020;-64
2021/06/04 03:57:42;;;;;;;4.00;2.35;;;;;;;;;;5069942;28;20032;-64
2021/06/04 04:00:10;;;;;;;4.15;2.40;;;;;;;;;;5071513;28;20027;-64
2021/06/04 04:02:35;;;;;;;3.00;1.83;;;;;;;;;;5072436;28;20055;-64
2021/06/04 04:05:00;;;;;;;2.83;2.10;;;;;;;;;;5072308;28;20048;-63
2021/06/04 04:07:28;;;;;;;5.35;2.38;;;;;;;;;;5068349;28;20095;-64
2021/06/04 04:09:53;;;;;;;2.88;2.50;;;;;;;;;;5080266;28;20441;-63
2021/06/04 04:12:19;;;;;;;3.03;2.22;;;;;;;;;;5092875;28;20020;-64
2021/06/04 04:14:45;;;;;;;3.03;2.63;;;;;;;;;;5081173;28;20114;-64
2021/06/04 04:17:10;;;;;;;3.50;2.42;;;;;;;;;;5069403;28;20357;-64
2021/06/04 04:19:35;;;;;;;2.60;2.13;;;;;;;;;;5072255;28;20028;-64
2021/06/04 04:22:01;;;;;;;2.72;1.98;;;;;;;;;;5072412;28;20472;-64
2021/06/04 04:24:30;;;;;;;4.88;2.00;;;;;;;;;;5071084;28;20021;-64
2021/06/04 04:26:56;;;;;;;2.08;1.88;;;;;;;;;;5068990;28;20017;-64
2021/06/04 04:29:21;;;;;;;5.70;2.42;;;;;;;;;;5072213;28;20017;-64
2021/06/04 04:31:48;;;;;;;2.05;1.80;;;;;;;;;;5071208;28;20039;-64
2021/06/04 04:34:14;;;;;;;3.38;1.75;;;;;;;;;;5071868;28;20476;-64
2021/06/04 04:36:41;;;;;;;2.13;1.70;;;;;;;;;;5070401;28;20063;-64
2021/06/04 04:39:08;;;;;;;7.93;2.55;;;;;;;;;;5071094;28;20483;-64
2021/06/04 04:41:33;;;;;;;3.67;1.98;;;;;;;;;;5072137;28;20091;-64
2021/06/04 04:43:59;;;;;;;2.30;1.70;;;;;;;;;;5073891;28;20016;-64
2021/06/04 04:46:26;;;;;;;5.60;2.25;;;;;;;;;;5084215;28;20024;-64
2021/06/04 04:48:51;;;;;;;6.03;1.98;;;;;;;;;;5067705;28;20020;-64
2021/06/04 04:51:17;;;;;;;3.72;2.47;;;;;;;;;;5072251;28;20036;-64
2021/06/04 04:53:42;;;;;;;4.72;2.00;;;;;;;;;;5071893;28;20099;-64
2021/06/04 04:56:08;;;;;;;3.22;1.92;;;;;;;;;;5068273;28;20100;-64
2021/06/04 04:58:33;;;;;;;3.85;2.10;;;;;;;;;;5057259;28;20020;-64
2021/06/04 05:00:59;;;;;;;5.32;1.90;;;;;;;;;;5104045;28;20025;-64
2021/06/04 05:03:26;;;;;;;3.88;2.30;;;;;;;;;;5104793;28;20021;-64
2021/06/04 05:05:51;;;;;;;2.38;1.98;;;;;;;;;;5070841;28;20096;-64
2021/06/04 05:08:17;;;;;;;8.50;2.15;;;;;;;;;;5068243;28;20107;-65
2021/06/04 05:10:42;;;;;;;5.00;2.22;;;;;;;;;;5082733;28;20460;-64
2021/06/04 05:13:08;;;;;;;25.15;3.75;;;;;;;;;;5071440;28;20032;-64
2021/06/04 05:15:35;;;;;;;50.20;6.88;;;;;;;;;;5103876;28;20388;-64
2021/06/04 05:18:00;;;;;;;8.68;2.28;;;;;;;;;;5058864;28;20388;-64
2021/06/04 05:20:26;;;;;;;4.30;1.90;;;;;;;;;;5064999;28;20021;-64
2021/06/04 05:22:52;;;;;;;16.30;3.50;;;;;;;;;;5104275;28;20020;-65
2021/06/04 05:25:19;;;;;;;4.47;2.40;;;;;;;;;;5071681;28;20024;-64
2021/06/04 05:27:45;;;;;;;10.65;2.38;;;;;;;;;;5068650;28;20017;-64
2021/06/04 05:30:13;;;;;;;5.65;2.70;;;;;;;;;;5070431;28;20494;-64
2021/06/04 05:32:38;;;;;;;13.85;3.33;;;;;;;;;;5071467;28;20077;-64
2021/06/04 05:35:05;;;;;;;6.88;2.28;;;;;;;;;;5071329;28;20090;-64
2021/06/04 05:37:30;;;;;;;7.50;1.98;;;;;;;;;;5068203;28;20028;-64
2021/06/04 05:39:55;;;;;;;10.13;2.45;;;;;;;;;;5071457;28;20408;-64
2021/06/04 05:42:21;;;;;;;18.80;3.28;;;;;;;;;;5071467;28;20411;-64
2021/06/04 05:44:47;;;;;;;7.22;2.58;;;;;;;;;;5071052;28;20031;-63
2021/06/04 05:47:14;;;;;;;5.10;2.10;;;;;;;;;;5068279;28;20024;-63
2021/06/04 05:49:39;;;;;;;8.30;2.58;;;;;;;;;;5070059;28;20020;-63
2021/06/04 05:52:08;;;;;;;15.15;3.22;;;;;;;;;;5071056;28;20036;-63
2021/06/04 05:54:35;;;;;;;8.32;1.95;;;;;;;;;;5071083;28;20027;-63
2021/06/04 05:57:00;;;;;;;15.40;2.30;;;;;;;;;;5069308;28;20461;-63
2021/06/04 05:59:25;;;;;;;3.17;1.77;;;;;;;;;;5075271;28;20016;-63
2021/06/04 06:01:50;;;;;;;6.03;2.22;;;;;;;;;;5074919;28;20017;-63
2021/06/04 06:04:16;;;;;;;6.95;2.22;;;;;;;;;;5074934;28;20145;-64
2021/06/04 06:06:41;;;;;;;3.35;1.92;;;;;;;;;;5072926;28;20077;-63
2021/06/04 06:09:07;;;;;;;7.43;2.33;;;;;;;;;;5072434;28;20491;-63
2021/06/04 06:11:33;;;;;;;13.20;2.85;;;;;;;;;;5074322;28;20020;-64
2021/06/04 06:14:00;;;;;;;5.90;2.08;;;;;;;;;;5083896;28;20027;-64
2021/06/04 06:16:26;;;;;;;11.82;2.60;;;;;;;;;;5074842;28;20024;-64
2021/06/04 06:18:51;;;;;;;9.85;2.90;;;;;;;;;;5070285;28;20013;-64
2021/06/04 06:21:17;;;;;;;10.02;2.67;;;;;;;;;;5107158;28;20119;-64
2021/06/04 06:23:42;;;;;;;14.93;2.42;;;;;;;;;;5074514;28;20085;-63
2021/06/04 06:26:12;;;;;;;18.83;3.47;;;;;;;;;;5073189;28;20020;-63
2021/06/04 06:28:39;;;;;;;8.43;2.97;;;;;;;;;;5071623;28;20057;-63
2021/06/04 06:31:06;;;;;;;11.75;2.60;;;;;;;;;;5074505;28;20039;-63
2021/06/04 06:33:31;;;;;;;8.68;2.70;;;;;;;;;;5074222;28;20031;-63
2021/06/04 06:35:58;;;;;;;12.10;3.13;;;;;;;;;;5074593;28;20020;-63
2021/06/04 06:38:24;;;;;;;5.97;2.90;;;;;;;;;;5069959;28;20021;-63
2021/06/04 06:40:50;;;;;;;9.00;2.63;;;;;;;;;;5073915;28;20087;-63
2021/06/04 06:43:16;;;;;;;7.25;2.35;;;;;;;;;;5074055;28;20025;-63
2021/06/04 06:45:41;;;;;;;10.20;2.60;;;;;;;;;;5073964;28;20017;-63
2021/06/04 06:48:08;;;;;;;7.25;2.50;;;;;;;;;;5070336;28;20017;-63
2021/06/04 06:50:34;;;;;;;6.32;2.17;;;;;;;;;;5072463;28;20036;-63
2021/06/04 06:53:03;;;;;;;8.40;2.70;;;;;;;;;;5074334;28;20024;-63
2021/06/04 06:55:29;;;;;;;9.15;2.92;;;;;;;;;;5074132;28;20020;-63
2021/06/04 06:57:54;;;;;;;8.13;3.42;;;;;;;;;;5071215;28;20024;-64
2021/06/04 07:00:22;;;;;;;9.30;2.65;;;;;;;;;;5073587;28;20031;-64
2021/06/04 07:02:47;;;;;;;8.88;2.70;;;;;;;;;;5072001;28;20025;-64
2021/06/04 07:05:13;;;;;;;5.15;2.60;;;;;;;;;;5074261;28;20027;-64
2021/06/04 07:07:39;;;;;;;7.57;2.70;;;;;;;;;;5071360;28;20017;-64
2021/06/04 07:10:07;;;;;;;14.98;3.45;;;;;;;;;;5072768;28;20471;-64
2021/06/04 07:12:32;;;;;;;11.27;2.72;;;;;;;;;;5073533;28;20090;-64
2021/06/04 07:14:57;;;;;;;11.50;3.03;;;;;;;;;;5073869;28;20476;-64
2021/06/04 07:17:23;;;;;;;5.60;2.45;;;;;;;;;;5070676;28;20016;-64
2021/06/04 07:19:49;;;;;;;17.55;3.20;;;;;;;;;;5071773;28;20025;-64
2021/06/04 07:22:14;;;;;;;11.18;2.60;;;;;;;;;;5067698;28;20120;-64
2021/06/04 07:24:39;;;;;;;9.30;2.92;;;;;;;;;;5069126;28;20017;-64
2021/06/04 07:27:04;;;;;;;8.68;2.50;;;;;;;;;;5050579;28;20392;-64
2021/06/04 07:29:30;;;;;;;11.07;2.38;;;;;;;;;;5069205;28;20024;-64
2021/06/04 07:31:56;;;;;;;5.70;2.35;;;;;;;;;;5073312;28;20036;-64
2021/06/04 07:34:23;;;;;;;6.07;2.17;;;;;;;;;;5073416;28;20083;-64
2021/06/04 07:36:50;;;;;;;3.83;1.35;;;;;;;;;;5070825;28;20107;-64
2021/06/04 07:39:19;;;;;;;4.32;1.50;;;;;;;;;;5072831;28;20072;-64
2021/06/04 07:41:44;;;;;;;7.78;2.25;;;;;;;;;;5072908;28;20111;-64
2021/06/04 07:44:12;;;;;;;3.78;1.90;;;;;;;;;;5073602;28;20503;-64
2021/06/04 07:46:37;;;;;;;4.35;1.85;;;;;;;;;;5070355;28;20016;-64
2021/06/04 07:49:03;;;;;;;4.55;1.83;;;;;;;;;;5071969;28;20047;-64
2021/06/04 07:51:33;;;;;;;7.15;2.55;;;;;;;;;;5089978;28;20066;-64
2021/06/04 07:53:58;;;;;;;5.20;2.38;;;;;;;;;;5090499;28;20100;-64
2021/06/04 07:56:24;;;;;;;8.32;2.25;;;;;;;;;;5072968;28;20523;-64
2021/06/04 07:58:49;;;;;;;8.23;2.33;;;;;;;;;;5069505;28;20081;-64
2021/06/04 08:01:15;;;;;;;5.90;2.72;;;;;;;;;;5072702;28;20460;-64
2021/06/04 08:03:41;;;;;;;8.75;2.40;;;;;;;;;;5072589;28;20035;-63
2021/06/04 08:06:07;;;;;;;4.53;2.45;;;;;;;;;;5072932;28;20012;-64
2021/06/04 08:08:34;;;;;;;10.82;2.45;;;;;;;;;;5069353;28;20560;-64
2021/06/04 08:11:00;;;;;;;12.48;3.35;;;;;;;;;;5071239;28;20046;-64
2021/06/04 08:13:25;;;;;;;9.52;2.50;;;;;;;;;;5071392;28;20025;-64
2021/06/04 08:15:56;;;;;;;10.05;2.55;;;;;;;;;;5072564;28;20032;-64
2021/06/04 08:18:23;;;;;;;14.38;2.80;;;;;;;;;;5069766;28;20460;-64
2021/06/04 08:20:48;;;;;;;6.95;1.88;;;;;;;;;;5071834;28;20025;-64
2021/06/04 08:23:17;;;;;;;13.60;3.17;;;;;;;;;;5072538;28;20012;-63
2021/06/04 08:25:44;;;;;;;11.55;2.33;;;;;;;;;;5068724;28;20019;-64
2021/06/04 08:28:10;;;;;;;6.88;1.95;;;;;;;;;;5067644;28;20035;-64
2021/06/04 08:30:36;;;;;;;6.93;2.25;;;;;;;;;;5070045;28;20479;-65
2021/06/04 08:33:02;;;;;;;20.17;2.75;;;;;;;;;;5064371;28;20468;-65
2021/06/04 08:35:29;;;;;;;6.00;2.03;;;;;;;;;;5075435;28;20181;-64
2021/06/04 08:37:54;;;;;;;12.65;2.58;;;;;;;;;;5069647;28;20379;-65
2021/06/04 08:40:24;;;;;;;8.23;2.85;;;;;;;;;;5100837;28;20041;-65
2021/06/04 08:43:08;;;;;;;9.55;3.58;;;;;;;;;;5071430;28;20368;-64
2021/06/04 08:45:37;;;;;;;11.13;2.00;;;;;;;;;;5062493;28;20023;-64
2021/06/04 08:48:05;;;;;;;5.13;2.15;;;;;;;;;;5069377;28;20403;-64
2021/06/04 08:50:31;;;;;;;2.03;1.27;;;;;;;;;;5071352;28;20042;-64
2021/06/04 08:53:01;;;;;;;3.90;1.52;;;;;;;;;;5070443;28;20487;-64
2021/06/04 08:55:26;;;;;;;2.78;1.27;;;;;;;;;;5069924;28;20031;-64
2021/06/04 08:58:04;;;;;;;3.83;1.33;;;;;;;;;;5063538;28;20025;-64
2021/06/04 09:00:31;;;;;;;2.53;1.17;;;;;;;;;;5069350;28;20483;-64
2021/06/04 09:03:02;;;;;;;5.47;1.85;;;;;;;;;;5070378;28;20430;-64
2021/06/04 09:05:40;;;;;;;3.05;1.20;;;;;;;;;;5070362;28;20023;-64
2021/06/04 09:08:07;;;;;;;3.30;1.55;;;;;;;;;;5069099;28;20052;-65
2021/06/04 09:10:49;;;;;;;5.03;1.63;;;;;;;;;;5069981;28;20025;-64
2021/06/04 09:13:16;;;;;;;5.03;2.33;;;;;;;;;;5070616;28;20480;-64
2021/06/04 09:15:42;;;;;;;3.50;1.30;;;;;;;;;;5071901;28;20070;-65
2021/06/04 09:18:11;;;;;;;3.15;1.35;;;;;;;;;;5068971;28;20016;-64
2021/06/04 09:20:43;;;;;;;3.40;1.55;;;;;;;;;;5071277;28;20498;-64
2021/06/04 09:23:10;;;;;;;3.15;0.95;;;;;;;;;;5071829;28;20043;-63
2021/06/04 09:25:36;;;;;;;3.17;1.50;;;;;;;;;;5070837;28;20023;-65
2021/06/04 09:28:14;;;;;;;1.98;1.20;;;;;;;;;;5068237;28;20013;-63
2021/06/04 09:30:42;;;;;;;2.53;1.10;;;;;;;;;;5067415;28;20021;-64
2021/06/04 09:33:10;;;;;;;1.85;1.23;;;;;;;;;;5073754;28;20020;-64
2021/06/04 09:35:36;;;;;;;3.17;1.13;;;;;;;;;;5074014;28;20024;-64
2021/06/04 09:38:12;;;;;;;5.50;1.60;;;;;;;;;;5072463;28;20025;-63
2021/06/04 09:40:39;;;;;;;2.58;1.23;;;;;;;;;;5075237;28;20071;-63
2021/06/04 09:43:14;;;;;;;6.38;1.35;;;;;;;;;;5074214;28;20021;-63
2021/06/04 09:45:42;;;;;;;3.05;1.08;;;;;;;;;;5074959;28;20009;-64
2021/06/04 09:48:14;;;;;;;2.20;0.93;;;;;;;;;;5070910;28;20017;-63
2021/06/04 09:50:42;;;;;;;3.13;1.20;;;;;;;;;;5073716;28;20021;-64
2021/06/04 09:53:16;;;;;;;1.45;0.82;;;;;;;;;;5073849;28;20120;-64
2021/06/04 09:55:42;;;;;;;3.50;1.50;;;;;;;;;;5073592;28;20016;-63
2021/06/04 09:58:16;;;;;;;2.55;1.05;;;;;;;;;;5072283;28;20468;-63
2021/06/04 10:00:50;;;;;;;3.10;1.48;;;;;;;;;;5073441;28;20025;-64
2021/06/04 10:03:34;;;;;;;3.65;1.38;;;;;;;;;;5075188;28;20017;-63
2021/06/04 10:06:05;;;;;;;2.72;1.27;;;;;;;;;;5074777;28;20048;-63
2021/06/04 10:08:31;;;;;;;2.47;0.98;;;;;;;;;;5071520;28;20017;-63
2021/06/04 10:11:05;;;;;;;1.27;0.88;;;;;;;;;;5074727;28;20024;-64
2021/06/04 10:13:35;;;;;;;2.60;1.15;;;;;;;;;;5073669;28;20465;-64
2021/06/04 10:16:03;;;;;;;2.03;1.10;;;;;;;;;;5074841;28;20081;-64
2021/06/04 10:18:36;;;;;;;1.30;0.90;;;;;;;;;;5071470;28;20104;-64
2021/06/04 10:21:20;;;;;;;4.38;1.58;;;;;;;;;;5073119;28;20016;-64
2021/06/04 10:23:47;;;;;;;1.88;0.93;;;;;;;;;;5074854;28;20491;-65
2021/06/04 10:26:30;;;;;;;4.45;0.98;;;;;;;;;;5073026;28;20428;-65
2021/06/04 10:29:07;;;;;;;3.30;1.23;;;;;;;;;;5071959;28;20051;-65
2021/06/04 10:31:50;;;;;;;1.80;0.90;;;;;;;;;;5064577;28;20048;-65
2021/06/04 10:34:15;;;;;;;2.20;1.40;;;;;;;;;;5056924;28;20012;-65
2021/06/04 10:36:43;;;;;;;1.47;1.23;;;;;;;;;;5071942;28;20096;-65
2021/06/04 10:39:10;;;;;;;3.33;1.30;;;;;;;;;;5073288;28;20282;-64
2021/06/04 10:41:54;;;;;;;5.93;1.30;;;;;;;;;;5073808;28;20021;-65
2021/06/04 10:44:38;;;;;;;3.22;1.05;;;;;;;;;;5072982;28;20502;-65
2021/06/04 10:47:12;;;;;;;4.32;1.13;;;;;;;;;;5069432;28;21226;-64
2021/06/04 10:49:56;;;;;;;1.58;0.95;;;;;;;;;;5073777;28;20024;-64
2021/06/04 10:52:27;;;;;;;2.20;1.13;;;;;;;;;;5093514;28;20024;-63
2021/06/04 10:55:11;;;;;;;3.65;1.02;;;;;;;;;;5073597;28;20029;-63
2021/06/04 10:57:51;;;;;;;3.13;1.15;;;;;;;;;;5070477;28;20511;-64
2021/06/04 11:00:22;;;;;;;7.07;1.15;;;;;;;;;;5072262;28;20095;-64
2021/06/04 11:03:06;;;;;;;4.20;1.40;;;;;;;;;;5073464;28;20021;-63
2021/06/04 11:05:51;;;;;;;7.63;1.27;;;;;;;;;;5071802;28;20020;-63
2021/06/04 11:08:19;;;;;;;3.75;1.38;;;;;;;;;;5070798;28;20023;-63
2021/06/04 11:10:55;;;;;;;2.80;1.25;;;;;;;;;;5073509;28;20541;-64
2021/06/04 11:13:28;;;;;;;5.72;1.17;;;;;;;;;;5085612;28;20028;-63
2021/06/04 11:15:56;;;;;;;3.90;1.38;;;;;;;;;;5074124;28;20021;-63
2021/06/04 11:18:34;;;;;;;6.30;1.13;;;;;;;;;;5074862;28;20059;-62
2021/06/04 11:21:01;;;;;;;6.30;2.20;;;;;;;;;;5071737;28;20017;-63
2021/06/04 11:23:28;;;;;;;1.90;1.17;;;;;;;;;;5072062;28;20017;-63
2021/06/04 11:26:01;;;;;;;7.43;2.03;;;;;;;;;;5072175;28;20016;-63
2021/06/04 11:28:31;;;;;;;5.00;1.45;;;;;;;;;;5068851;28;20376;-63
2021/06/04 11:30:58;;;;;;;6.28;1.20;;;;;;;;;;5053602;28;20025;-63
2021/06/04 11:33:25;;;;;;;3.17;1.40;;;;;;;;;;5053747;28;20116;-63
2021/06/04 11:35:53;;;;;;;4.55;1.20;;;;;;;;;;5058038;28;20025;-63
2021/06/04 11:38:54;;;;;;;5.50;1.20;;;;;;;;;;5069592;28;20085;-63
2021/06/04 11:41:45;;;;;;;7.05;1.70;;;;;;;;;;5051029;28;20072;-63
2021/06/04 11:44:29;;;;;;;4.65;1.38;;;;;;;;;;5048913;28;20047;-63
2021/06/04 11:47:22;;;;;;;4.15;1.27;;;;;;;;;;5056228;28;20032;-63
2021/06/04 11:49:53;;;;;;;5.18;1.45;;;;;;;;;;5070807;28;20041;-65
2021/06/04 11:52:27;;;;;;;14.75;1.70;;;;;;;;;;5070443;28;20134;-64
2021/06/04 11:55:08;;;;;;;4.60;1.45;;;;;;;;;;5070593;28;20099;-64
2021/06/04 11:57:45;;;;;;;2.65;1.20;;;;;;;;;;5050266;28;20496;-64
2021/06/04 12:00:29;;;;;;;5.35;1.20;;;;;;;;;;5070248;28;20058;-64
2021/06/04 12:03:09;;;;;;;8.85;1.60;;;;;;;;;;5053947;28;20103;-63
2021/06/04 12:05:38;;;;;;;5.30;1.25;;;;;;;;;;5070224;28;20491;-63
2021/06/04 12:08:12;;;;;;;3.95;1.40;;;;;;;;;;5067261;28;20039;-64
2021/06/04 12:10:46;;;;;;;5.53;1.45;;;;;;;;;;5070210;28;20097;-64
2021/06/04 12:13:28;;;;;;;4.78;1.10;;;;;;;;;;5070222;28;20020;-63
2021/06/04 12:15:53;;;;;;;4.00;1.08;;;;;;;;;;5057514;28;20071;-63
2021/06/04 12:18:35;;;;;;;3.90;1.53;;;;;;;;;;5067604;28;20129;-63
2021/06/04 12:21:00;;;;;;;6.75;1.20;;;;;;;;;;5072260;28;20431;-63
2021/06/04 12:23:46;;;;;;;8.50;1.55;;;;;;;;;;5072042;28;20020;-64
2021/06/04 12:26:29;;;;;;;3.83;1.48;;;;;;;;;;5072068;28;20154;-64
2021/06/04 12:28:54;;;;;;;2.15;1.30;;;;;;;;;;5071592;28;20418;-64
2021/06/04 12:31:22;;;;;;;3.70;1.52;;;;;;;;;;5072299;28;20017;-64
2021/06/04 12:33:51;;;;;;;6.03;1.40;;;;;;;;;;5070825;28;20016;-64
2021/06/04 12:36:35;;;;;;;3.35;1.33;;;;;;;;;;5071057;28;20726;-62
2021/06/04 12:39:35;;;;;;;1.33;1.13;;;;;;;;;;5069001;28;20044;-62
2021/06/04 12:42:17;;;;;;;3.38;1.23;;;;;;;;;;5069608;28;20278;-63
2021/06/04 12:44:57;;;;;;;4.80;1.33;;;;;;;;;;5086037;28;20067;-63
2021/06/04 12:47:37;;;;;;;5.18;1.17;;;;;;;;;;5066830;28;20024;-63
2021/06/04 12:50:05;;;;;;;10.90;1.75;;;;;;;;;;5052442;28;20082;-63
2021/06/04 12:52:31;;;;;;;2.95;1.10;;;;;;;;;;5069656;28;20040;-63
2021/06/04 12:55:10;;;;;;;1.15;0.95;;;;;;;;;;5052734;28;20442;-63
2021/06/04 12:57:36;;;;;;;1.80;0.90;;;;;;;;;;5049352;28;20496;-63
2021/06/04 13:00:16;;;;;;;3.30;1.07;;;;;;;;;;5069858;28;20029;-63
2021/06/04 13:02:42;;;;;;;3.30;0.73;;;;;;;;;;5069528;28;20103;-63
2021/06/04 13:05:09;;;;;;;1.83;0.98;;;;;;;;;;5068932;28;20113;-64
2021/06/04 13:07:37;;;;;;;1.27;0.93;;;;;;;;;;5065729;28;20387;-64
2021/06/04 13:10:02;;;;;;;2.33;0.80;;;;;;;;;;5052862;28;20024;-64
2021/06/04 13:12:29;;;;;;;1.67;0.83;;;;;;;;;;5085798;28;20024;-63
2021/06/04 13:14:55;;;;;;;4.38;0.80;;;;;;;;;;5069668;28;20502;-64
2021/06/04 13:17:28;;;;;;;2.17;0.88;;;;;;;;;;5055504;28;20113;-64
2021/06/04 13:20:05;;;;;;;2.73;0.80;;;;;;;;;;5071795;28;20440;-64
2021/06/04 13:22:31;;;;;;;2.05;0.80;;;;;;;;;;5071664;28;20071;-64
2021/06/04 13:25:08;;;;;;;1.00;0.83;;;;;;;;;;5069142;28;20499;-63
2021/06/04 13:27:35;;;;;;;2.95;0.93;;;;;;;;;;5049880;28;20302;-63
2021/06/04 13:30:04;;;;;;;0.73;0.73;;;;;;;;;;5068532;28;20027;-63
2021/06/04 13:32:48;;;;;;;2.03;0.70;;;;;;;;;;5065583;28;20021;-63
2021/06/04 13:35:25;;;;;;;2.90;0.60;;;;;;;;;;5102682;28;20209;-63
2021/06/04 13:37:54;;;;;;;3.78;0.93;;;;;;;;;;5069052;28;20276;-63
2021/06/04 13:40:21;;;;;;;1.52;0.47;;;;;;;;;;5071123;28;20036;-63
2021/06/04 13:42:48;;;;;;;1.90;0.60;;;;;;;;;;5066194;28;20075;-63
2021/06/04 13:45:16;;;;;;;1.50;0.60;;;;;;;;;;5069033;28;20452;-63
2021/06/04 13:47:41;;;;;;;2.50;0.57;;;;;;;;;;5054454;28;20027;-63
2021/06/04 13:50:15;;;;;;;2.63;0.70;;;;;;;;;;5060346;28;20025;-64
2021/06/04 13:52:54;;;;;;;2.38;0.65;;;;;;;;;;5059107;28;20499;-64
2021/06/04 13:55:20;;;;;;;1.15;0.73;;;;;;;;;;5103893;28;20028;-64
2021/06/04 13:57:45;;;;;;;1.05;0.52;;;;;;;;;;5069824;28;20132;-64
2021/06/04 14:00:23;;;;;;;1.17;0.40;;;;;;;;;;5086287;28;20382;-64
2021/06/04 14:02:50;;;;;;;0.60;0.45;;;;;;;;;;5083098;28;20020;-64
2021/06/04 14:05:21;;;;;;;0.50;0.40;;;;;;;;;;5071526;28;20055;-64
2021/06/04 14:07:46;;;;;;;1.63;0.40;;;;;;;;;;5059193;28;20236;-64
2021/06/04 14:10:33;;;;;;;1.75;0.75;;;;;;;;;;5051249;28;20092;-64
2021/06/04 14:13:03;;;;;;;1.40;0.30;;;;;;;;;;5049643;28;20048;-64
2021/06/04 14:15:41;;;;;;;0.50;0.50;;;;;;;;;;5070354;28;20027;-64
2021/06/04 14:18:26;;;;;;;1.10;1.00;;;;;;;;;;5101995;28;20025;-64
2021/06/04 14:20:51;;;;;;;1.35;0.40;;;;;;;;;;5074267;28;20020;-64
2021/06/04 14:23:24;;;;;;;0.47;0.40;;;;;;;;;;5075394;28;20479;-64
2021/06/04 14:25:50;;;;;;;1.58;0.35;;;;;;;;;;5090726;28;20024;-63
2021/06/04 14:28:20;;;;;;;2.85;0.52;;;;;;;;;;5075223;28;20069;-63
2021/06/04 14:30:49;;;;;;;1.13;0.40;;;;;;;;;;5077381;28;20391;-63
2021/06/04 14:33:17;;;;;;;0.60;0.30;;;;;;;;;;5079754;28;20021;-63
2021/06/04 14:35:42;;;;;;;3.63;0.50;;;;;;;;;;5073951;28;20024;-63
2021/06/04 14:38:23;;;;;;;2.40;0.50;;;;;;;;;;5071549;28;20468;-64
2021/06/04 14:40:48;;;;;;;2.13;0.40;;;;;;;;;;5073336;28;20051;-64
2021/06/04 14:43:13;;;;;;;2.78;0.40;;;;;;;;;;5079917;28;20008;-63
2021/06/04 14:45:39;;;;;;;0.70;0.40;;;;;;;;;;5089952;28;20035;-63
2021/06/04 14:48:05;;;;;;;0.40;0.30;;;;;;;;;;5070609;28;20265;-63
2021/06/04 14:50:32;;;;;;;0.68;0.43;;;;;;;;;;5073652;28;20043;-64
2021/06/04 14:52:58;;;;;;;0.43;0.30;;;;;;;;;;5072248;28;20480;-64
2021/06/04 14:55:24;;;;;;;1.15;0.35;;;;;;;;;;5073989;28;20104;-63